sensor_id;sensor_type;location;lat;lon;timestamp;pressure;altitude;pressure_sealevel;temperature;humidity
68456;BME280;55437;55.046;38.838;2023-02-16T00:01:51;100750.38;;;0.11;58.27
68456;BME280;55437;55.046;38.838;2023-02-16T00:04:20;100750.16;;;0.03;58.58
68456;BME280;55437;55.046;38.838;2023-02-16T00:06:48;100752.47;;;-0.06;58.68
68456;BME280;55437;55.046;38.838;2023-02-16T00:09:14;100750.06;;;-0.02;58.40
68456;BME280;55437;55.046;38.838;2023-02-16T00:11:41;100757.69;;;0.00;58.88
68456;BME280;55437;55.046;38.838;2023-02-16T00:14:26;100742.50;;;-0.02;58.78
68456;BME280;55437;55.046;38.838;2023-02-16T00:16:54;100751.91;;;0.06;58.82
68456;BME280;55437;55.046;38.838;2023-02-16T00:19:39;100746.94;;;0.09;58.51
68456;BME280;55437;55.046;38.838;2023-02-16T00:22:07;100736.94;;;0.12;58.58
68456;BME280;55437;55.046;38.838;2023-02-16T00:24:33;100740.22;;;0.09;58.70
68456;BME280;55437;55.046;38.838;2023-02-16T00:26:59;100744.47;;;0.10;58.52
68456;BME280;55437;55.046;38.838;2023-02-16T00:29:33;100738.50;;;0.08;58.41
68456;BME280;55437;55.046;38.838;2023-02-16T00:32:03;100741.81;;;0.06;58.71
68456;BME280;55437;55.046;38.838;2023-02-16T00:36:56;100752.53;;;-0.03;59.03
68456;BME280;55437;55.046;38.838;2023-02-16T00:39:23;100755.66;;;-0.13;59.16
68456;BME280;55437;55.046;38.838;2023-02-16T00:41:53;100746.41;;;-0.11;59.14
68456;BME280;55437;55.046;38.838;2023-02-16T00:44:42;100756.34;;;-0.19;59.32
68456;BME280;55437;55.046;38.838;2023-02-16T00:47:20;100747.72;;;-0.27;59.08
68456;BME280;55437;55.046;38.838;2023-02-16T00:49:48;100747.22;;;-0.45;59.51
68456;BME280;55437;55.046;38.838;2023-02-16T00:54:47;100746.53;;;-0.69;59.88
68456;BME280;55437;55.046;38.838;2023-02-16T00:57:16;100756.81;;;-0.63;59.63
68456;BME280;55437;55.046;38.838;2023-02-16T00:59:44;100759.47;;;-0.89;60.00
68456;BME280;55437;55.046;38.838;2023-02-16T01:02:10;100758.66;;;-0.88;60.28
68456;BME280;55437;55.046;38.838;2023-02-16T01:04:36;100757.47;;;-0.99;60.46
68456;BME280;55437;55.046;38.838;2023-02-16T01:07:09;100754.59;;;-1.11;61.14
68456;BME280;55437;55.046;38.838;2023-02-16T01:09:54;100761.47;;;-1.05;61.14
68456;BME280;55437;55.046;38.838;2023-02-16T01:12:38;100752.00;;;-1.14;60.97
68456;BME280;55437;55.046;38.838;2023-02-16T01:15:08;100759.22;;;-1.25;61.31
68456;BME280;55437;55.046;38.838;2023-02-16T01:17:34;100760.75;;;-1.30;61.47
68456;BME280;55437;55.046;38.838;2023-02-16T01:20:00;100763.31;;;-1.28;61.56
68456;BME280;55437;55.046;38.838;2023-02-16T01:22:29;100769.31;;;-1.25;61.33
68456;BME280;55437;55.046;38.838;2023-02-16T01:24:58;100764.66;;;-1.39;62.09
68456;BME280;55437;55.046;38.838;2023-02-16T01:27:24;100763.88;;;-1.37;62.14
68456;BME280;55437;55.046;38.838;2023-02-16T01:29:49;100765.44;;;-1.40;61.98
68456;BME280;55437;55.046;38.838;2023-02-16T01:32:15;100773.75;;;-1.43;62.30
68456;BME280;55437;55.046;38.838;2023-02-16T01:34:41;100768.06;;;-1.37;61.72
68456;BME280;55437;55.046;38.838;2023-02-16T01:37:13;100770.31;;;-1.47;62.65
68456;BME280;55437;55.046;38.838;2023-02-16T01:39:41;100767.75;;;-1.48;62.39
68456;BME280;55437;55.046;38.838;2023-02-16T01:44:58;100770.22;;;-1.50;62.08
68456;BME280;55437;55.046;38.838;2023-02-16T01:47:44;100773.63;;;-1.48;62.13
68456;BME280;55437;55.046;38.838;2023-02-16T01:50:23;100772.41;;;-1.33;62.24
68456;BME280;55437;55.046;38.838;2023-02-16T01:52:58;100776.91;;;-1.23;62.12
68456;BME280;55437;55.046;38.838;2023-02-16T01:55:33;100775.47;;;-1.15;61.93
68456;BME280;55437;55.046;38.838;2023-02-16T01:58:04;100774.72;;;-1.13;61.78
68456;BME280;55437;55.046;38.838;2023-02-16T02:03:23;100778.03;;;-1.14;61.50
68456;BME280;55437;55.046;38.838;2023-02-16T02:06:15;100770.22;;;-1.23;61.89
68456;BME280;55437;55.046;38.838;2023-02-16T02:09:05;100778.09;;;-1.39;61.92
68456;BME280;55437;55.046;38.838;2023-02-16T02:11:37;100783.94;;;-1.40;61.94
68456;BME280;55437;55.046;38.838;2023-02-16T02:14:19;100783.94;;;-1.40;62.29
68456;BME280;55437;55.046;38.838;2023-02-16T02:17:10;100777.28;;;-1.38;62.41
68456;BME280;55437;55.046;38.838;2023-02-16T02:20:27;100772.03;;;-1.46;62.71
68456;BME280;55437;55.046;38.838;2023-02-16T02:23:20;100774.44;;;-1.49;62.55
68456;BME280;55437;55.046;38.838;2023-02-16T02:32:03;100784.94;;;-1.35;62.33
68456;BME280;55437;55.046;38.838;2023-02-16T02:37:30;100783.13;;;-1.39;63.01
68456;BME280;55437;55.046;38.838;2023-02-16T02:45:58;100783.31;;;-1.60;63.64
68456;BME280;55437;55.046;38.838;2023-02-16T02:48:30;100779.28;;;-1.55;63.96
68456;BME280;55437;55.046;38.838;2023-02-16T02:51:17;100780.06;;;-1.56;63.99
68456;BME280;55437;55.046;38.838;2023-02-16T02:54:22;100778.03;;;-1.40;63.66
68456;BME280;55437;55.046;38.838;2023-02-16T02:57:17;100774.09;;;-1.32;63.38
68456;BME280;55437;55.046;38.838;2023-02-16T03:00:18;100781.47;;;-1.38;63.44
68456;BME280;55437;55.046;38.838;2023-02-16T03:05:50;100775.84;;;-1.30;63.34
68456;BME280;55437;55.046;38.838;2023-02-16T03:08:19;100772.53;;;-1.29;63.42
68456;BME280;55437;55.046;38.838;2023-02-16T03:10:47;100764.69;;;-1.38;63.35
68456;BME280;55437;55.046;38.838;2023-02-16T03:13:38;100776.69;;;-1.56;63.91
68456;BME280;55437;55.046;38.838;2023-02-16T03:16:11;100765.19;;;-1.50;63.61
68456;BME280;55437;55.046;38.838;2023-02-16T03:18:40;100761.91;;;-1.47;63.64
68456;BME280;55437;55.046;38.838;2023-02-16T03:21:27;100771.88;;;-1.50;63.31
68456;BME280;55437;55.046;38.838;2023-02-16T03:24:23;100766.88;;;-1.49;63.66
68456;BME280;55437;55.046;38.838;2023-02-16T03:27:11;100766.25;;;-1.41;63.35
68456;BME280;55437;55.046;38.838;2023-02-16T03:29:56;100767.75;;;-1.48;63.56
68456;BME280;55437;55.046;38.838;2023-02-16T03:32:24;100769.34;;;-1.50;63.68
68456;BME280;55437;55.046;38.838;2023-02-16T03:34:50;100769.31;;;-1.52;63.93
68456;BME280;55437;55.046;38.838;2023-02-16T03:37:15;100768.22;;;-1.60;63.96
68456;BME280;55437;55.046;38.838;2023-02-16T03:39:41;100770.63;;;-1.63;64.23
68456;BME280;55437;55.046;38.838;2023-02-16T03:42:26;100772.41;;;-1.60;64.41
68456;BME280;55437;55.046;38.838;2023-02-16T03:44:52;100780.22;;;-1.51;63.99
68456;BME280;55437;55.046;38.838;2023-02-16T03:47:19;100777.25;;;-1.39;63.92
68456;BME280;55437;55.046;38.838;2023-02-16T03:49:45;100774.44;;;-1.49;64.03
68456;BME280;55437;55.046;38.838;2023-02-16T03:52:11;100768.34;;;-1.55;64.16
68456;BME280;55437;55.046;38.838;2023-02-16T03:54:36;100770.06;;;-1.54;64.27
68456;BME280;55437;55.046;38.838;2023-02-16T03:57:02;100768.84;;;-1.65;64.62
68456;BME280;55437;55.046;38.838;2023-02-16T03:59:29;100774.75;;;-1.65;64.68
68456;BME280;55437;55.046;38.838;2023-02-16T04:02:14;100773.91;;;-1.65;64.88
68456;BME280;55437;55.046;38.838;2023-02-16T04:04:40;100774.06;;;-1.61;64.53
68456;BME280;55437;55.046;38.838;2023-02-16T04:07:07;100775.66;;;-1.63;64.14
68456;BME280;55437;55.046;38.838;2023-02-16T04:09:32;100773.84;;;-1.67;64.63
68456;BME280;55437;55.046;38.838;2023-02-16T04:11:58;100768.63;;;-1.73;64.87
68456;BME280;55437;55.046;38.838;2023-02-16T04:14:42;100765.34;;;-1.70;64.90
68456;BME280;55437;55.046;38.838;2023-02-16T04:17:09;100766.91;;;-1.74;64.83
68456;BME280;55437;55.046;38.838;2023-02-16T04:19:35;100763.38;;;-1.79;65.25
68456;BME280;55437;55.046;38.838;2023-02-16T04:22:01;100772.50;;;-1.83;65.53
68456;BME280;55437;55.046;38.838;2023-02-16T04:24:26;100764.97;;;-1.81;64.98
68456;BME280;55437;55.046;38.838;2023-02-16T04:26:52;100770.03;;;-1.81;65.45
68456;BME280;55437;55.046;38.838;2023-02-16T04:29:18;100774.34;;;-1.77;65.38
68456;BME280;55437;55.046;38.838;2023-02-16T04:31:44;100766.63;;;-1.83;64.98
68456;BME280;55437;55.046;38.838;2023-02-16T04:34:10;100771.50;;;-1.88;64.98
68456;BME280;55437;55.046;38.838;2023-02-16T04:36:36;100772.59;;;-1.79;65.05
68456;BME280;55437;55.046;38.838;2023-02-16T04:39:01;100781.56;;;-1.88;65.21
68456;BME280;55437;55.046;38.838;2023-02-16T04:41:27;100773.66;;;-1.73;64.78
68456;BME280;55437;55.046;38.838;2023-02-16T04:43:53;100776.19;;;-1.73;65.25
68456;BME280;55437;55.046;38.838;2023-02-16T04:46:19;100771.09;;;-1.74;64.93
68456;BME280;55437;55.046;38.838;2023-02-16T04:48:44;100769.22;;;-1.80;65.18
68456;BME280;55437;55.046;38.838;2023-02-16T04:51:10;100771.03;;;-1.76;65.19
68456;BME280;55437;55.046;38.838;2023-02-16T04:53:36;100760.16;;;-1.75;64.90
68456;BME280;55437;55.046;38.838;2023-02-16T04:56:02;100772.19;;;-1.66;65.17
68456;BME280;55437;55.046;38.838;2023-02-16T04:58:28;100776.03;;;-1.77;65.37
68456;BME280;55437;55.046;38.838;2023-02-16T05:00:54;100761.78;;;-1.77;65.60
68456;BME280;55437;55.046;38.838;2023-02-16T05:03:21;100766.22;;;-1.70;65.20
68456;BME280;55437;55.046;38.838;2023-02-16T05:05:48;100760.34;;;-1.69;64.98
68456;BME280;55437;55.046;38.838;2023-02-16T05:08:13;100770.13;;;-1.78;64.77
68456;BME280;55437;55.046;38.838;2023-02-16T05:10:41;100763.19;;;-1.85;64.87
68456;BME280;55437;55.046;38.838;2023-02-16T05:13:09;100770.69;;;-1.87;65.01
68456;BME280;55437;55.046;38.838;2023-02-16T05:15:53;100769.63;;;-1.93;65.44
68456;BME280;55437;55.046;38.838;2023-02-16T05:18:20;100767.25;;;-1.89;64.66
68456;BME280;55437;55.046;38.838;2023-02-16T05:20:48;100766.69;;;-1.82;64.83
68456;BME280;55437;55.046;38.838;2023-02-16T05:23:33;100767.56;;;-1.79;64.59
68456;BME280;55437;55.046;38.838;2023-02-16T05:25:58;100762.47;;;-1.81;64.53
68456;BME280;55437;55.046;38.838;2023-02-16T05:28:24;100771.59;;;-1.85;64.52
68456;BME280;55437;55.046;38.838;2023-02-16T05:30:51;100770.34;;;-1.72;64.66
68456;BME280;55437;55.046;38.838;2023-02-16T05:33:18;100775.00;;;-1.30;63.44
68456;BME280;55437;55.046;38.838;2023-02-16T05:35:43;100776.28;;;-1.16;63.03
68456;BME280;55437;55.046;38.838;2023-02-16T05:38:09;100775.44;;;-0.88;62.82
68456;BME280;55437;55.046;38.838;2023-02-16T05:40:35;100779.72;;;-0.86;62.08
68456;BME280;55437;55.046;38.838;2023-02-16T05:43:01;100777.41;;;-0.78;62.42
68456;BME280;55437;55.046;38.838;2023-02-16T05:45:27;100780.84;;;-0.76;62.39
68456;BME280;55437;55.046;38.838;2023-02-16T05:47:53;100775.47;;;-0.57;61.95
68456;BME280;55437;55.046;38.838;2023-02-16T05:50:20;100778.78;;;-0.59;62.04
68456;BME280;55437;55.046;38.838;2023-02-16T05:52:47;100775.53;;;-0.55;61.70
68456;BME280;55437;55.046;38.838;2023-02-16T05:55:13;100787.47;;;-0.50;61.33
68456;BME280;55437;55.046;38.838;2023-02-16T05:57:39;100782.56;;;-0.44;61.19
68456;BME280;55437;55.046;38.838;2023-02-16T06:00:05;100785.72;;;-0.52;60.89
68456;BME280;55437;55.046;38.838;2023-02-16T06:02:31;100785.63;;;-0.85;61.34
68456;BME280;55437;55.046;38.838;2023-02-16T06:04:57;100789.00;;;-0.85;61.23
68456;BME280;55437;55.046;38.838;2023-02-16T06:07:23;100786.28;;;-0.62;60.86
68456;BME280;55437;55.046;38.838;2023-02-16T06:09:48;100793.38;;;-0.49;60.35
68456;BME280;55437;55.046;38.838;2023-02-16T06:12:15;100786.66;;;-0.49;60.18
68456;BME280;55437;55.046;38.838;2023-02-16T06:14:40;100781.34;;;-0.28;59.35
68456;BME280;55437;55.046;38.838;2023-02-16T06:17:06;100788.78;;;0.00;58.36
68456;BME280;55437;55.046;38.838;2023-02-16T06:19:32;100797.53;;;0.12;57.62
68456;BME280;55437;55.046;38.838;2023-02-16T06:21:59;100788.34;;;-0.18;56.33
68456;BME280;55437;55.046;38.838;2023-02-16T06:24:25;100789.81;;;-0.56;55.69
68456;BME280;55437;55.046;38.838;2023-02-16T06:26:52;100785.63;;;-0.55;55.19
68456;BME280;55437;55.046;38.838;2023-02-16T06:29:17;100786.09;;;-0.39;54.23
68456;BME280;55437;55.046;38.838;2023-02-16T06:31:43;100785.63;;;-0.55;53.53
68456;BME280;55437;55.046;38.838;2023-02-16T06:34:09;100778.81;;;-0.58;53.44
68456;BME280;55437;55.046;38.838;2023-02-16T06:36:35;100770.75;;;-0.76;53.18
68456;BME280;55437;55.046;38.838;2023-02-16T06:39:01;100770.16;;;-0.96;53.47
68456;BME280;55437;55.046;38.838;2023-02-16T06:41:30;100769.44;;;-0.63;53.06
68456;BME280;55437;55.046;38.838;2023-02-16T06:43:57;100775.31;;;-0.63;52.79
68456;BME280;55437;55.046;38.838;2023-02-16T06:46:44;100776.09;;;-0.65;52.52
68456;BME280;55437;55.046;38.838;2023-02-16T06:49:14;100772.00;;;-0.62;52.58
68456;BME280;55437;55.046;38.838;2023-02-16T06:51:41;100766.28;;;-0.55;52.54
68456;BME280;55437;55.046;38.838;2023-02-16T06:54:07;100767.97;;;-0.55;52.34
68456;BME280;55437;55.046;38.838;2023-02-16T06:56:33;100769.88;;;-0.47;52.20
68456;BME280;55437;55.046;38.838;2023-02-16T06:58:59;100771.84;;;-0.37;52.44
68456;BME280;55437;55.046;38.838;2023-02-16T07:01:25;100779.94;;;-0.17;51.93
68456;BME280;55437;55.046;38.838;2023-02-16T07:03:52;100775.94;;;-0.09;51.75
68456;BME280;55437;55.046;38.838;2023-02-16T07:06:18;100773.03;;;0.09;51.61
68456;BME280;55437;55.046;38.838;2023-02-16T07:08:46;100776.78;;;0.23;51.49
68456;BME280;55437;55.046;38.838;2023-02-16T07:11:12;100772.78;;;0.67;51.02
68456;BME280;55437;55.046;38.838;2023-02-16T07:13:38;100781.09;;;1.01;50.18
68456;BME280;55437;55.046;38.838;2023-02-16T07:16:04;100778.69;;;1.48;49.48
68456;BME280;55437;55.046;38.838;2023-02-16T07:18:31;100773.22;;;1.70;48.75
68456;BME280;55437;55.046;38.838;2023-02-16T07:20:57;100773.94;;;2.09;47.84
68456;BME280;55437;55.046;38.838;2023-02-16T07:23:23;100774.34;;;2.34;47.06
68456;BME280;55437;55.046;38.838;2023-02-16T07:25:48;100771.19;;;3.06;46.36
68456;BME280;55437;55.046;38.838;2023-02-16T07:28:14;100778.19;;;3.22;45.42
68456;BME280;55437;55.046;38.838;2023-02-16T07:30:40;100771.34;;;3.18;45.28
68456;BME280;55437;55.046;38.838;2023-02-16T07:33:06;100769.84;;;3.32;44.81
68456;BME280;55437;55.046;38.838;2023-02-16T07:35:33;100767.91;;;3.13;44.51
68456;BME280;55437;55.046;38.838;2023-02-16T07:37:59;100771.69;;;3.44;44.24
68456;BME280;55437;55.046;38.838;2023-02-16T07:40:25;100764.13;;;2.83;45.18
68456;BME280;55437;55.046;38.838;2023-02-16T07:42:52;100758.69;;;2.59;45.42
68456;BME280;55437;55.046;38.838;2023-02-16T07:45:18;100769.41;;;2.97;44.60
68456;BME280;55437;55.046;38.838;2023-02-16T07:47:44;100763.47;;;2.97;44.55
68456;BME280;55437;55.046;38.838;2023-02-16T07:50:12;100759.00;;;2.80;44.63
68456;BME280;55437;55.046;38.838;2023-02-16T07:52:37;100751.47;;;2.28;45.05
68456;BME280;55437;55.046;38.838;2023-02-16T07:55:04;100753.03;;;2.75;44.74
68456;BME280;55437;55.046;38.838;2023-02-16T07:57:30;100755.19;;;2.51;44.58
68456;BME280;55437;55.046;38.838;2023-02-16T07:59:55;100751.06;;;2.06;45.45
68456;BME280;55437;55.046;38.838;2023-02-16T08:02:22;100755.44;;;2.13;45.16
68456;BME280;55437;55.046;38.838;2023-02-16T08:04:49;100749.00;;;2.34;44.56
68456;BME280;55437;55.046;38.838;2023-02-16T08:07:17;100755.41;;;2.12;44.42
68456;BME280;55437;55.046;38.838;2023-02-16T08:09:47;100753.13;;;1.77;44.64
68456;BME280;55437;55.046;38.838;2023-02-16T08:12:15;100758.47;;;1.49;45.03
68456;BME280;55437;55.046;38.838;2023-02-16T08:14:42;100751.59;;;1.01;45.75
68456;BME280;55437;55.046;38.838;2023-02-16T08:17:08;100763.75;;;0.79;46.08
68456;BME280;55437;55.046;38.838;2023-02-16T08:19:35;100755.03;;;0.66;46.72
68456;BME280;55437;55.046;38.838;2023-02-16T08:22:06;100750.19;;;0.05;47.97
68456;BME280;55437;55.046;38.838;2023-02-16T08:24:36;100757.81;;;0.06;48.04
68456;BME280;55437;55.046;38.838;2023-02-16T08:27:03;100755.59;;;-0.15;48.19
68456;BME280;55437;55.046;38.838;2023-02-16T08:29:30;100758.03;;;-0.18;48.62
68456;BME280;55437;55.046;38.838;2023-02-16T08:31:58;100755.25;;;0.05;47.99
68456;BME280;55437;55.046;38.838;2023-02-16T08:34:25;100756.09;;;-0.28;48.90
68456;BME280;55437;55.046;38.838;2023-02-16T08:36:53;100756.34;;;-0.19;48.89
68456;BME280;55437;55.046;38.838;2023-02-16T08:39:39;100754.38;;;-0.29;48.47
68456;BME280;55437;55.046;38.838;2023-02-16T08:42:06;100750.13;;;0.02;48.26
68456;BME280;55437;55.046;38.838;2023-02-16T08:44:32;100745.69;;;-0.07;48.14
68456;BME280;55437;55.046;38.838;2023-02-16T08:46:59;100747.84;;;0.12;47.67
68456;BME280;55437;55.046;38.838;2023-02-16T08:49:25;100742.91;;;-0.18;47.99
68456;BME280;55437;55.046;38.838;2023-02-16T08:51:54;100751.69;;;-0.04;48.25
68456;BME280;55437;55.046;38.838;2023-02-16T08:54:23;100743.78;;;0.17;48.12
68456;BME280;55437;55.046;38.838;2023-02-16T08:56:51;100750.88;;;0.32;48.22
68456;BME280;55437;55.046;38.838;2023-02-16T08:59:19;100753.66;;;0.08;48.68
68456;BME280;55437;55.046;38.838;2023-02-16T09:01:46;100746.16;;;0.11;48.66
68456;BME280;55437;55.046;38.838;2023-02-16T09:04:13;100741.81;;;0.40;48.04
68456;BME280;55437;55.046;38.838;2023-02-16T09:06:58;100747.66;;;0.39;48.14
68456;BME280;55437;55.046;38.838;2023-02-16T09:09:25;100747.31;;;0.24;48.41
68456;BME280;55437;55.046;38.838;2023-02-16T09:11:51;100747.75;;;0.42;48.17
68456;BME280;55437;55.046;38.838;2023-02-16T09:14:18;100743.63;;;0.46;48.23
68456;BME280;55437;55.046;38.838;2023-02-16T09:16:44;100750.78;;;0.29;48.43
68456;BME280;55437;55.046;38.838;2023-02-16T09:19:12;100742.34;;;-0.06;48.71
68456;BME280;55437;55.046;38.838;2023-02-16T09:21:39;100752.38;;;-0.09;49.13
68456;BME280;55437;55.046;38.838;2023-02-16T09:24:06;100743.94;;;-0.10;49.16
68456;BME280;55437;55.046;38.838;2023-02-16T09:26:35;100746.56;;;-0.07;49.11
68456;BME280;55437;55.046;38.838;2023-02-16T09:29:32;100745.25;;;-0.25;49.51
68456;BME280;55437;55.046;38.838;2023-02-16T09:32:01;100748.00;;;-0.78;50.47
68456;BME280;55437;55.046;38.838;2023-02-16T09:34:28;100739.66;;;-1.05;50.92
68456;BME280;55437;55.046;38.838;2023-02-16T09:36:54;100746.09;;;-1.15;51.41
68456;BME280;55437;55.046;38.838;2023-02-16T09:39:20;100737.88;;;-1.08;51.48
68456;BME280;55437;55.046;38.838;2023-02-16T09:41:59;100755.16;;;-1.21;51.36
68456;BME280;55437;55.046;38.838;2023-02-16T09:46:57;100753.72;;;-1.40;52.13
68456;BME280;55437;55.046;38.838;2023-02-16T09:49:38;100752.09;;;-1.65;52.12
68456;BME280;55437;55.046;38.838;2023-02-16T09:54:57;100755.28;;;-1.96;52.94
68456;BME280;55437;55.046;38.838;2023-02-16T09:57:39;100754.78;;;-1.86;52.75
68456;BME280;55437;55.046;38.838;2023-02-16T10:00:20;100769.81;;;-2.12;53.09
68456;BME280;55437;55.046;38.838;2023-02-16T10:08:54;100760.56;;;-2.37;53.66
68456;BME280;55437;55.046;38.838;2023-02-16T10:14:28;100770.16;;;-2.27;53.47
68456;BME280;55437;55.046;38.838;2023-02-16T10:17:16;100764.97;;;-2.56;53.94
68456;BME280;55437;55.046;38.838;2023-02-16T10:22:31;100757.81;;;-2.69;53.83
68456;BME280;55437;55.046;38.838;2023-02-16T10:25:03;100766.03;;;-2.49;54.33
68456;BME280;55437;55.046;38.838;2023-02-16T10:27:38;100760.88;;;-2.52;54.34
68456;BME280;55437;55.046;38.838;2023-02-16T10:30:18;100771.50;;;-2.61;54.36
68456;BME280;55437;55.046;38.838;2023-02-16T10:35:45;100759.84;;;-2.59;54.26
68456;BME280;55437;55.046;38.838;2023-02-16T10:41:06;100756.66;;;-2.53;54.71
68456;BME280;55437;55.046;38.838;2023-02-16T10:43:46;100746.34;;;-2.37;53.96
68456;BME280;55437;55.046;38.838;2023-02-16T10:46:24;100750.75;;;-2.55;54.03
68456;BME280;55437;55.046;38.838;2023-02-16T10:48:53;100752.13;;;-2.39;53.94
68456;BME280;55437;55.046;38.838;2023-02-16T10:51:24;100746.94;;;-2.44;54.37
68456;BME280;55437;55.046;38.838;2023-02-16T10:54:06;100745.97;;;-2.47;54.29
68456;BME280;55437;55.046;38.838;2023-02-16T10:59:17;100755.84;;;-2.30;53.60
68456;BME280;55437;55.046;38.838;2023-02-16T11:01:50;100745.59;;;-2.34;53.25
68456;BME280;55437;55.046;38.838;2023-02-16T11:04:30;100753.88;;;-2.37;53.77
68456;BME280;55437;55.046;38.838;2023-02-16T11:07:10;100750.56;;;-2.12;53.37
68456;BME280;55437;55.046;38.838;2023-02-16T11:09:38;100744.91;;;-2.05;52.81
68456;BME280;55437;55.046;38.838;2023-02-16T11:15:20;100745.13;;;-1.99;53.16
68456;BME280;55437;55.046;38.838;2023-02-16T11:18:25;100753.63;;;-1.95;52.84
68456;BME280;55437;55.046;38.838;2023-02-16T11:20:53;100752.56;;;-1.76;52.18
68456;BME280;55437;55.046;38.838;2023-02-16T11:23:26;100746.31;;;-1.62;51.98
68456;BME280;55437;55.046;38.838;2023-02-16T11:28:47;100744.13;;;-1.52;51.93
68456;BME280;55437;55.046;38.838;2023-02-16T11:31:30;100748.94;;;-1.59;52.00
68456;BME280;55437;55.046;38.838;2023-02-16T11:34:38;100748.00;;;-1.88;51.96
68456;BME280;55437;55.046;38.838;2023-02-16T11:39:51;100740.94;;;-1.46;51.34
68456;BME280;55437;55.046;38.838;2023-02-16T11:42:34;100748.06;;;-1.33;51.01
68456;BME280;55437;55.046;38.838;2023-02-16T11:45:03;100743.75;;;-1.37;51.27
68456;BME280;55437;55.046;38.838;2023-02-16T11:47:36;100737.69;;;-1.42;51.68
68456;BME280;55437;55.046;38.838;2023-02-16T11:50:23;100734.88;;;-1.24;51.39
68456;BME280;55437;55.046;38.838;2023-02-16T11:53:15;100742.00;;;-1.11;51.32
68456;BME280;55437;55.046;38.838;2023-02-16T11:55:46;100739.56;;;-1.36;51.49
68456;BME280;55437;55.046;38.838;2023-02-16T11:58:24;100732.44;;;-1.50;51.80
68456;BME280;55437;55.046;38.838;2023-02-16T12:01:24;100746.53;;;-1.28;51.40
68456;BME280;55437;55.046;38.838;2023-02-16T12:38:23;100743.44;;;-1.73;51.88
68456;BME280;55437;55.046;38.838;2023-02-16T12:41:07;100739.03;;;-1.53;51.36
68456;BME280;55437;55.046;38.838;2023-02-16T12:48:57;100742.56;;;-1.48;52.14
68456;BME280;55437;55.046;38.838;2023-02-16T12:54:28;100738.59;;;-1.40;52.97
68456;BME280;55437;55.046;38.838;2023-02-16T12:57:15;100750.38;;;-1.39;53.70
68456;BME280;55437;55.046;38.838;2023-02-16T13:02:40;100753.84;;;-1.62;55.69
68456;BME280;55437;55.046;38.838;2023-02-16T13:05:13;100748.72;;;-1.65;55.84
68456;BME280;55437;55.046;38.838;2023-02-16T13:07:43;100747.41;;;-1.79;56.89
68456;BME280;55437;55.046;38.838;2023-02-16T13:12:49;100750.03;;;-1.76;56.66
68456;BME280;55437;55.046;38.838;2023-02-16T13:17:57;100747.97;;;-1.63;56.11
68456;BME280;55437;55.046;38.838;2023-02-16T13:20:26;100747.28;;;-1.84;55.12
68456;BME280;55437;55.046;38.838;2023-02-16T13:25:49;100752.47;;;-2.29;54.90
68456;BME280;55437;55.046;38.838;2023-02-16T13:31:28;100748.22;;;-2.31;54.43
68456;BME280;55437;55.046;38.838;2023-02-16T13:34:31;100749.34;;;-2.47;54.44
68456;BME280;55437;55.046;38.838;2023-02-16T13:39:58;100748.28;;;-2.30;53.58
68456;BME280;55437;55.046;38.838;2023-02-16T13:47:40;100751.25;;;-2.40;54.10
68456;BME280;55437;55.046;38.838;2023-02-16T13:50:27;100761.75;;;-2.51;54.57
68456;BME280;55437;55.046;38.838;2023-02-16T13:52:57;100750.84;;;-2.52;54.64
68456;BME280;55437;55.046;38.838;2023-02-16T13:55:35;100755.78;;;-2.55;54.37
68456;BME280;55437;55.046;38.838;2023-02-16T14:00:43;100754.44;;;-2.69;54.99
68456;BME280;55437;55.046;38.838;2023-02-16T14:05:50;100757.50;;;-2.76;55.85
68456;BME280;55437;55.046;38.838;2023-02-16T14:08:25;100747.81;;;-2.67;56.13
68456;BME280;55437;55.046;38.838;2023-02-16T14:11:06;100753.94;;;-2.59;55.77
68456;BME280;55437;55.046;38.838;2023-02-16T14:18:58;100751.69;;;-2.75;56.69
68456;BME280;55437;55.046;38.838;2023-02-16T14:21:30;100765.50;;;-2.86;57.36
68456;BME280;55437;55.046;38.838;2023-02-16T14:23:59;100755.66;;;-2.82;56.87
68456;BME280;55437;55.046;38.838;2023-02-16T14:26:26;100757.03;;;-2.90;57.50
68456;BME280;55437;55.046;38.838;2023-02-16T14:31:24;100751.63;;;-2.99;57.08
68456;BME280;55437;55.046;38.838;2023-02-16T14:34:12;100767.19;;;-3.09;56.95
68456;BME280;55437;55.046;38.838;2023-02-16T14:39:36;100754.16;;;-3.21;56.93
68456;BME280;55437;55.046;38.838;2023-02-16T14:42:15;100754.59;;;-3.32;57.45
68456;BME280;55437;55.046;38.838;2023-02-16T15:02:28;100766.44;;;-4.12;57.66
68456;BME280;55437;55.046;38.838;2023-02-16T15:04:55;100769.25;;;-4.05;57.48
68456;BME280;55437;55.046;38.838;2023-02-16T15:07:22;100778.00;;;-3.95;57.54
68456;BME280;55437;55.046;38.838;2023-02-16T15:09:55;100774.63;;;-3.76;56.91
68456;BME280;55437;55.046;38.838;2023-02-16T15:12:37;100776.13;;;-3.80;56.68
68456;BME280;55437;55.046;38.838;2023-02-16T15:15:05;100778.00;;;-3.74;56.58
68456;BME280;55437;55.046;38.838;2023-02-16T15:17:44;100776.00;;;-3.83;56.80
68456;BME280;55437;55.046;38.838;2023-02-16T15:20:30;100780.88;;;-3.86;57.18
68456;BME280;55437;55.046;38.838;2023-02-16T15:23:04;100784.88;;;-3.91;57.19
68456;BME280;55437;55.046;38.838;2023-02-16T15:25:34;100788.38;;;-3.87;56.86
68456;BME280;55437;55.046;38.838;2023-02-16T15:30:39;100778.44;;;-3.84;57.14
68456;BME280;55437;55.046;38.838;2023-02-16T15:33:13;100782.88;;;-3.79;56.83
68456;BME280;55437;55.046;38.838;2023-02-16T15:36:11;100777.19;;;-3.75;56.83
68456;BME280;55437;55.046;38.838;2023-02-16T15:38:41;100787.88;;;-3.79;56.94
68456;BME280;55437;55.046;38.838;2023-02-16T15:41:14;100794.69;;;-3.76;57.29
68456;BME280;55437;55.046;38.838;2023-02-16T15:43:46;100794.63;;;-3.78;57.49
68456;BME280;55437;55.046;38.838;2023-02-16T15:48:55;100798.53;;;-3.64;56.85
68456;BME280;55437;55.046;38.838;2023-02-16T15:51:28;100800.06;;;-3.46;56.87
68456;BME280;55437;55.046;38.838;2023-02-16T15:59:36;100809.66;;;-3.78;57.11